Aviation Digital Data Service (ADDS)

Output produced by METARs form (0742 UTC 24 March 2019)
found at http://www.aviationweather.gov/metar/data/
 
TAF VRMG 240500Z 2406/2512 13008KT 9999 FEW018
       
TAF VRMH 240500Z 2406/2512 05006KT 9999 FEW018